Data for 02/15/2017

Time Sea-Level Adjusted Pressure Absolute Pressure Temperature Relative Humidity Dew Point   
(mb) (inHg) (mb) (inHg) (C) (F) (%) (C) (F)
00:05 1021 30.15 850 25.1 -0.7 30.8 60 -7.5 18.6
00:10 1021 30.15 850 25.1 -0.5 31 60 -7.4 18.7
00:15 1021 30.15 850 25.1 -0.6 31 60 -7.5 18.5
00:20 1021 30.15 850 25.1 -0.7 30.8 60 -7.4 18.7
00:25 1021 30.15 850 25.1 -0.9 30.4 61 -7.5 18.5
00:30 1021 30.15 850 25.1 -0.6 30.9 60 -7.6 18.4
00:35 1021 30.15 850 25.1 -0.4 31.2 59 -7.5 18.6
00:40 1021 30.15 850 25.1 -0.5 31.1 60 -7.4 18.7
00:45 1021 30.15 850 25.1 -1 30.3 61 -7.6 18.4
00:50 1021 30.15 850 25.1 -0.9 30.5 60 -7.7 18.2
00:55 1021 30.15 850 25.1 -0.6 31 58 -7.9 17.8
01:00 1021 30.15 850 25.1 0.2 32.3 57 -7.4 18.6
01:05 1021 30.15 850 25.1 -0.2 31.6 58 -7.5 18.5
01:10 1020 30.12 850 25.1 0.2 32.4 55 -7.8 17.9
01:15 1020 30.12 850 25.1 0.8 33.4 54 -7.5 18.5
01:20 1020 30.12 850 25.1 0.5 32.8 56 -7.4 18.7
01:25 1020 30.12 850 25.1 0.7 33.2 55 -7.5 18.6
01:30 1021 30.15 850 25.1 0.8 33.4 54 -7.5 18.6
01:35 1021 30.15 850 25.1 0.9 33.7 54 -7.4 18.6
01:40 1021 30.15 850 25.1 0.9 33.5 54 -7.5 18.5
01:45 1021 30.15 850 25.1 0.5 33 56 -7.3 18.9
01:50 1020 30.12 850 25.1 0 32 57 -7.5 18.5
01:55 1021 30.15 850 25.1 -0.4 31.4 59 -7.5 18.5
02:00 1021 30.15 850 25.1 -0.7 30.8 60 -7.5 18.6
02:05 1021 30.15 850 25.1 -0.5 31 59 -7.6 18.3
02:10 1021 30.15 850 25.1 -0.5 31.1 60 -7.4 18.6
02:15 1021 30.15 850 25.1 -0.3 31.5 57 -7.7 18.1
02:20 1021 30.15 850 25.1 -0.3 31.4 59 -7.5 18.6
02:25 1021 30.15 850 25.1 -0.3 31.4 57 -7.9 17.9
02:30 1021 30.15 850 25.1 -0.2 31.7 58 -7.6 18.4
02:35 1021 30.15 850 25.1 -0.4 31.3 58 -7.7 18.1
02:40 1021 30.15 850 25.1 -0.2 31.7 56 -7.9 17.8
02:45 1021 30.15 850 25.1 0.1 32.2 56 -7.6 18.3
02:50 1020 30.12 850 25.1 -0.2 31.6 58 -7.6 18.4
02:55 1020 30.12 850 25.1 -0.8 30.7 59 -7.8 18
03:00 1020 30.12 849 25.07 -0.8 30.6 60 -7.7 18.1
03:05 1020 30.12 849 25.07 -1 30.3 60 -7.7 18.1
03:10 1020 30.12 849 25.07 -1.1 29.9 61 -7.8 18
03:15 1020 30.12 849 25.07 -1.3 29.7 61 -7.8 17.9
03:20 1020 30.12 849 25.07 -1.4 29.4 62 -7.9 17.8
03:25 1020 30.12 849 25.07 -1 30.1 60 -7.9 17.7
03:30 1020 30.12 849 25.07 -0.9 30.4 60 -7.8 18
03:35 1020 30.12 849 25.07 -0.6 30.9 58 -7.8 17.9
03:40 1020 30.12 849 25.07 -0.6 31 57 -7.9 17.7
03:45 1020 30.12 849 25.07 -0.2 31.7 56 -7.9 17.8
03:50 1020 30.12 849 25.07 -0.3 31.4 57 -7.9 17.8
03:55 1020 30.12 849 25.07 -0.5 31 58 -7.9 17.8
04:00 1020 30.12 849 25.07 -0.5 31.1 57 -7.9 17.7
04:05 1020 30.12 849 25.07 -0.4 31.3 57 -8 17.7
04:10 1020 30.12 849 25.07 0.1 32.2 55 -8 17.6
04:15 1020 30.12 849 25.07 0.4 32.8 55 -7.6 18.3
04:20 1020 30.12 849 25.07 -0.6 30.8 59 -7.7 18.1
04:25 1020 30.12 849 25.07 -1.2 29.9 57 -8.6 16.6
04:30 1020 30.12 849 25.07 -1 30.1 57 -8.5 16.7
04:35 1020 30.12 849 25.07 -0.7 30.8 58 -8 17.5
04:40 1020 30.12 849 25.07 -0.5 31.1 58 -7.8 18
04:45 1020 30.12 849 25.07 -0.9 30.5 59 -7.9 17.9
04:50 1020 30.12 849 25.07 -1.2 29.9 60 -8 17.5
04:55 1020 30.12 849 25.07 -1.1 29.9 59 -8.2 17.3
05:00 1020 30.12 849 25.07 -0.9 30.4 58 -8.1 17.5
05:05 1020 30.12 849 25.07 -0.5 31 57 -8.1 17.4
05:10 1020 30.12 849 25.07 -0.6 30.9 58 -8 17.6
05:15 1020 30.12 849 25.07 -0.7 30.8 58 -8 17.6
05:20 1020 30.12 849 25.07 -1.2 29.9 60 -7.9 17.8
05:25 1020 30.12 849 25.07 -1.3 29.7 59 -8.2 17.2
05:30 1020 30.12 849 25.07 -1.1 30 59 -8.2 17.3
05:35 1020 30.12 849 25.07 -1.3 29.6 60 -8.1 17.5
05:40 1020 30.12 849 25.07 -1.3 29.7 59 -8.2 17.2
05:45 1020 30.12 849 25.07 -1 30.1 59 -8 17.6
05:50 1020 30.12 849 25.07 -1 30.1 60 -7.9 17.8
05:55 1020 30.12 849 25.07 -1.6 29.2 63 -7.7 18.1
06:00 1020 30.12 849 25.07 -1.8 28.7 64 -7.8 17.9
06:05 1020 30.12 849 25.07 -1.7 28.9 62 -8.1 17.4
06:10 1020 30.12 849 25.07 -1.7 29 62 -8 17.6
06:15 1020 30.12 849 25.07 -1.8 28.8 63 -8 17.6
06:20 1020 30.12 849 25.07 -2 28.4 62 -8.4 16.9
06:25 1020 30.12 849 25.07 -2.9 26.8 66 -8.4 17
06:30 1020 30.12 849 25.07 -2.4 27.6 63 -8.5 16.7
06:35 1020 30.12 849 25.07 -2.1 28.3 61 -8.5 16.7
06:40 1020 30.12 849 25.07 -2.2 28 63 -8.4 16.9
06:45 1020 30.12 849 25.07 -2 28.4 61 -8.5 16.7
06:50 1020 30.12 849 25.07 -2 28.5 61 -8.5 16.8
06:55 1020 30.12 849 25.07 -2 28.4 61 -8.6 16.5
07:00 1020 30.12 849 25.07 -1.9 28.7 61 -8.5 16.7
07:05 1020 30.12 849 25.07 -2.1 28.3 61 -8.5 16.7
07:10 1020 30.12 849 25.07 -2.2 28.1 61 -8.6 16.5
07:15 1020 30.12 849 25.07 -1.5 29.2 60 -8.4 16.9
07:20 1020 30.12 849 25.07 -0.9 30.4 57 -8.3 17.1
07:25 1020 30.12 849 25.07 -1 30.3 58 -8.2 17.2
07:30 1019 30.09 849 25.07 -0.8 30.5 56 -8.4 16.8
07:35 1019 30.09 849 25.07 -1.1 30.1 58 -8.3 17
07:40 1019 30.09 849 25.07 -1.4 29.5 58 -8.5 16.6
07:45 1019 30.09 849 25.07 -1.1 30 57 -8.6 16.5
07:50 1019 30.09 849 25.07 -0.7 30.7 56 -8.4 16.9
07:55 1019 30.09 848 25.04 -0.3 31.5 54 -8.4 16.9
08:00 1019 30.09 848 25.04 -0 31.9 53 -8.5 16.6
08:05 1019 30.09 848 25.04 0.3 32.5 52 -8.4 16.9
08:10 1019 30.09 849 25.07 0 32.1 52 -8.8 16.2
08:15 1019 30.09 849 25.07 0.5 33 48 -9.1 15.6
08:20 1019 30.09 848 25.04 1 33.8 47 -9 15.8
08:25 1019 30.09 848 25.04 1.2 34.2 46 -9.2 15.4
08:30 1019 30.09 848 25.04 1.1 34 47 -9 15.7
08:35 1019 30.09 848 25.04 0.8 33.5 48 -9.1 15.7
08:40 1019 30.09 848 25.04 1 33.9 46 -9.4 15.1
08:45 1019 30.09 848 25.04 1.5 34.8 45 -9.2 15.5
08:50 1019 30.09 849 25.07 2 35.5 44 -9 15.9
08:55 1019 30.09 848 25.04 2.3 36.1 44 -8.8 16.2
09:00 1019 30.09 848 25.04 2.2 36 45 -8.6 16.5
09:05 1019 30.09 848 25.04 2.2 35.9 46 -8.2 17.2
09:10 1019 30.09 848 25.04 2.3 36.1 44 -8.8 16.2
09:15 1019 30.09 848 25.04 2.9 37.2 42 -8.7 16.4
09:20 1019 30.09 848 25.04 3.8 38.9 40 -8.5 16.6
09:25 1019 30.09 848 25.04 4.6 40.3 37 -8.8 16.1
09:30 1019 30.09 848 25.04 5.2 41.3 36 -8.6 16.5
09:35 1019 30.09 848 25.04 5.3 41.5 36 -8.6 16.6
09:40 1019 30.09 848 25.04 5.6 42.1 36 -8.5 16.7
09:45 1019 30.09 848 25.04 5.9 42.6 35 -8.5 16.7
09:50 1019 30.09 848 25.04 6.2 43.2 34 -8.7 16.3
09:55 1019 30.09 848 25.04 6.5 43.6 31 -9.4 15.1
10:00 1019 30.09 848 25.04 6.7 44 32 -8.7 16.4
10:05 1019 30.09 848 25.04 7 44.6 31 -9.2 15.5
10:10 1019 30.09 848 25.04 7 44.7 30 -9.3 15.2
10:15 1019 30.09 848 25.04 7.5 45.5 30 -8.8 16.1
10:20 1019 30.09 848 25.04 7.8 46 29 -9.2 15.5
10:25 1019 30.09 848 25.04 7.9 46.3 31 -8.1 17.4
10:30 1019 30.09 848 25.04 7.9 46.2 29 -9 15.8
10:35 1019 30.09 848 25.04 7.8 46 30 -8.9 16
10:40 1019 30.09 848 25.04 8.2 46.8 30 -8.5 16.7
10:45 1018 30.06 848 25.04 8.5 47.3 29 -8.5 16.7
10:50 1018 30.06 848 25.04 8.7 47.7 28 -8.8 16.2
10:55 1018 30.06 848 25.04 8.9 48 30 -7.8 18
11:00 1018 30.06 848 25.04 9.5 49.1 28 -8 17.7
11:05 1018 30.06 848 25.04 10.2 50.4 26 -8.4 17
11:10 1018 30.06 848 25.04 10.4 50.7 25 -9 15.8
11:15 1018 30.06 848 25.04 10.6 51.1 23 -9.8 14.4
11:20 1018 30.06 847 25.01 10.5 50.8 25 -9 15.8
11:25 1018 30.06 847 25.01 10.2 50.4 23 -10 13.9
11:30 1018 30.06 847 25.01 10.3 50.5 24 -9.6 14.7
11:35 1018 30.06 847 25.01 10.5 51 23 -9.5 14.9
11:40 1018 30.06 847 25.01 10.5 51 24 -9.2 15.5
11:45 1018 30.06 847 25.01 10.3 50.6 24 -9.4 15
11:50 1018 30.06 847 25.01 10.2 50.3 23 -9.9 14.2
11:55 1018 30.06 847 25.01 10.2 50.4 22 -10.7 12.8
12:00 1018 30.06 847 25.01 10.8 51.4 22 -10.2 13.7
12:05 1018 30.06 847 25.01 11.3 52.4 23 -9.3 15.2
12:10 1017 30.03 847 25.01 11.5 52.8 23 -9 15.8
12:15 1017 30.03 847 25.01 11.3 52.4 22 -9.8 14.3
12:20 1017 30.03 846 24.98 11.5 52.6 25 -7.9 17.8
12:25 1017 30.03 846 24.98 12.3 54.2 25 -7.3 18.8
12:30 1017 30.03 846 24.98 12.9 55.1 24 -7.2 19.1
12:35 1017 30.03 846 24.98 13.2 55.7 23 -7.4 18.8
12:40 1017 30.03 846 24.98 12.7 54.9 24 -7.2 19
12:45 1017 30.03 846 24.98 12.3 54.2 23 -8.4 16.9
12:50 1017 30.03 846 24.98 11.8 53.2 24 -8.2 17.3
12:55 1017 30.03 846 24.98 11.9 53.5 21 -9.6 14.8
13:00 1017 30.03 846 24.98 12.7 54.9 22 -8.6 16.5
13:05 1017 30.03 846 24.98 13 55.4 20 -9.2 15.5
13:10 1017 30.03 846 24.98 13.3 55.9 22 -8 17.5
13:15 1017 30.03 846 24.98 13.7 56.6 22 -7.7 18.2
13:20 1016 30 846 24.98 13.8 56.9 21 -8.1 17.4
13:25 1016 30 846 24.98 14 57.2 21 -8.2 17.3
13:30 1016 30 845 24.95 13.8 56.9 21 -8.3 17.1
13:35 1016 30 845 24.95 13.8 56.8 22 -7.7 18.2
13:40 1016 30 845 24.95 13.8 56.8 23 -7.1 19.3
13:45 1016 30 845 24.95 14 57.2 24 -6.4 20.6
13:50 1016 30 845 24.95 13.9 57.1 25 -5.6 22
13:55 1016 30 845 24.95 14.1 57.4 24 -6.3 20.6
14:00 1016 30 845 24.95 13.8 56.8 26 -5.5 22.1
14:05 1016 30 845 24.95 13.2 55.8 26 -5.9 21.4
14:10 1016 30 845 24.95 13.1 55.5 25 -6.6 20.1
14:15 1016 30 845 24.95 13.4 56.1 26 -5.9 21.3
14:20 1016 30 845 24.95 13 55.4 27 -5.7 21.7
14:25 1016 30 845 24.95 12.9 55.2 28 -5 22.9
14:30 1016 30 845 24.95 12.2 53.9 28 -5.6 21.9
14:35 1016 30 845 24.95 11.9 53.4 28 -5.8 21.5
14:40 1016 30 845 24.95 11.9 53.4 29 -5.7 21.8
14:45 1016 30 845 24.95 11.6 52.8 28 -6.1 21
14:50 1016 30 845 24.95 11.2 52.1 29 -6.2 20.8
14:55 1016 30 845 24.95 11 51.7 29 -6.5 20.3
15:00 1016 30 845 24.95 10.9 51.6 27 -7.2 19
15:05 1016 30 845 24.95 11.1 51.9 25 -8.3 17
15:10 1016 30 845 24.95 11.6 52.8 26 -7.5 18.5
15:15 1016 30 845 24.95 12 53.7 23 -8.2 17.2
15:20 1016 30 845 24.95 12.6 54.6 22 -8.3 17
15:25 1016 30 845 24.95 12.4 54.4 20 -9.7 14.6
15:30 1016 30 845 24.95 12.4 54.2 25 -6.9 19.5
15:35 1016 30 845 24.95 12.2 53.9 28 -6 21.3
15:40 1016 30 845 24.95 12.2 53.9 27 -6.1 21.1
15:45 1016 30 845 24.95 12.5 54.5 27 -6 21.1
15:50 1016 30 845 24.95 13.1 55.6 24 -7.2 19.1
15:55 1016 30 845 24.95 13.4 56.1 24 -7 19.4
16:00 1016 30 845 24.95 13.2 55.8 24 -7.1 19.2
16:05 1016 30 845 24.95 13.5 56.2 22 -8 17.6
16:10 1016 30 845 24.95 14.1 57.4 19 -9.1 15.6
16:15 1016 30 845 24.95 14.5 58.1 19 -8.7 16.4
16:20 1016 30 845 24.95 14.1 57.4 20 -8.7 16.4
16:25 1016 30 845 24.95 14.2 57.5 18 -9.9 14.1
16:30 1015 29.97 845 24.95 14.4 57.9 19 -8.8 16.1
16:35 1015 29.97 845 24.95 14.5 58.2 18 -9.2 15.4
16:40 1015 29.97 845 24.95 14.3 57.8 18 -9.8 14.3
16:45 1016 30 845 24.95 13.9 57 19 -9.4 15
16:50 1016 30 845 24.95 13.7 56.7 22 -7.6 18.4
16:55 1015 29.97 845 24.95 13.2 55.7 23 -7.4 18.7
17:00 1015 29.97 845 24.95 12.6 54.8 24 -7.4 18.6
17:05 1016 30 845 24.95 12.7 54.8 23 -8 17.7
17:10 1015 29.97 845 24.95 12.2 53.9 22 -9 15.9
17:15 1015 29.97 845 24.95 12.1 53.9 22 -8.8 16.1
17:20 1015 29.97 845 24.95 12.5 54.5 22 -8.4 16.8
17:25 1015 29.97 845 24.95 12.1 53.8 23 -8.5 16.6
17:30 1015 29.97 845 24.95 12 53.5 23 -8.4 17
17:35 1015 29.97 845 24.95 12.1 53.8 23 -8.6 16.5
17:40 1015 29.97 845 24.95 12.1 53.7 24 -8 17.6
17:45 1015 29.97 844 24.92 11.9 53.4 23 -8.5 16.7
17:50 1015 29.97 844 24.92 11.3 52.3 25 -8 17.7
17:55 1015 29.97 844 24.92 10.6 51.1 26 -8 17.7
18:00 1015 29.97 844 24.92 10.2 50.3 28 -7.4 18.7
18:05 1015 29.97 844 24.92 10 50 26 -8.5 16.8
18:10 1015 29.97 844 24.92 9.6 49.2 30 -7.3 18.9
18:15 1015 29.97 844 24.92 9.1 48.3 31 -7.1 19.2
18:20 1015 29.97 844 24.92 8.4 47.1 32 -7.3 18.8
18:25 1015 29.97 844 24.92 7.8 46.1 35 -6.6 20.2
18:30 1015 29.97 844 24.92 7.2 44.9 35 -7.2 19
18:35 1015 29.97 844 24.92 6.8 44.3 37 -6.8 19.8
18:40 1015 29.97 844 24.92 6.6 43.9 39 -6.3 20.7
18:45 1015 29.97 844 24.92 6 42.9 43 -5.7 21.7
18:50 1015 29.97 844 24.92 5.7 42.3 31 -10.1 13.8
18:55 1015 29.97 844 24.92 7.4 45.3 29 -9.7 14.6
19:00 1015 29.97 844 24.92 7.8 46 27 -9.9 14.1
19:05 1015 29.97 844 24.92 8.1 46.5 28 -9.5 14.9
19:10 1015 29.97 844 24.92 8 46.5 31 -8.2 17.2
19:15 1015 29.97 844 24.92 7.9 46.3 29 -9.1 15.6
19:20 1015 29.97 844 24.92 8 46.4 29 -9.1 15.5
19:25 1015 29.97 844 24.92 7.7 45.8 30 -8.7 16.3
19:30 1015 29.97 844 24.92 7.2 45 30 -9.1 15.5
19:35 1015 29.97 844 24.92 7.3 45.1 30 -9.3 15.3
19:40 1015 29.97 844 24.92 7.2 44.9 30 -9.2 15.5
19:45 1015 29.97 844 24.92 7.2 44.9 29 -9.5 14.9
19:50 1015 29.97 844 24.92 7 44.6 31 -9.1 15.6
19:55 1015 29.97 844 24.92 6.7 44 32 -9.1 15.7
20:00 1015 29.97 844 24.92 6.2 43.1 31 -9.7 14.6
20:05 1015 29.97 844 24.92 6.5 43.7 30 -10 14
20:10 1015 29.97 844 24.92 6.4 43.6 32 -9.2 15.4
20:15 1015 29.97 844 24.92 6.5 43.6 29 -10.3 13.5
20:20 1015 29.97 844 24.92 7 44.7 33 -8.1 17.5
20:25 1015 29.97 844 24.92 6.3 43.3 30 -10 14
20:30 1015 29.97 844 24.92 6.3 43.3 32 -9.3 15.3
20:35 1015 29.97 844 24.92 6.4 43.4 32 -9.3 15.2
20:40 1015 29.97 844 24.92 5.6 42.2 32 -9.7 14.5
20:45 1015 29.97 844 24.92 5.3 41.6 37 -8.3 17.1
20:50 1015 29.97 844 24.92 5.1 41.1 35 -9.1 15.7
20:55 1015 29.97 844 24.92 4.9 40.8 34 -9.6 14.7
21:00 1015 29.97 844 24.92 5.3 41.5 35 -9.1 15.7
21:05 1015 29.97 844 24.92 5.5 41.9 32 -10.1 13.8
21:10 1015 29.97 844 24.92 5.8 42.4 31 -10 14.1
21:15 1015 29.97 844 24.92 5.6 42 33 -9.5 14.8
21:20 1015 29.97 844 24.92 5.3 41.6 32 -10.3 13.5
21:25 1014 29.94 844 24.92 5.7 42.3 32 -9.8 14.3
21:30 1014 29.94 844 24.92 5.6 42.2 32 -9.8 14.3
21:35 1014 29.94 844 24.92 5.1 41.2 34 -9.4 15.1
21:40 1014 29.94 843 24.89 4.7 40.5 33 -10.2 13.7
21:45 1014 29.94 843 24.89 5.1 41.1 32 -10.3 13.4
21:50 1014 29.94 843 24.89 5.2 41.3 31 -10.5 13.1
21:55 1014 29.94 843 24.89 5.5 41.9 30 -10.8 12.6
22:00 1014 29.94 843 24.89 5.8 42.5 29 -10.8 12.6
22:05 1014 29.94 843 24.89 5.7 42.2 31 -10.4 13.3
22:10 1014 29.94 843 24.89 5.4 41.7 32 -10.1 13.9
22:15 1014 29.94 843 24.89 4.5 40.1 34 -10.1 13.9
22:20 1014 29.94 843 24.89 4.6 40.3 33 -10.4 13.3
22:25 1014 29.94 843 24.89 4.6 40.3 32 -10.7 12.8
22:30 1014 29.94 843 24.89 5.1 41.2 30 -11.1 12
22:35 1014 29.94 843 24.89 5.3 41.5 31 -10.6 12.9
22:40 1014 29.94 843 24.89 5.1 41.2 30 -11.2 11.9
22:45 1014 29.94 843 24.89 5.4 41.8 29 -11.1 12.1
22:50 1014 29.94 843 24.89 5.6 42 29 -11.1 12
22:55 1014 29.94 843 24.89 5.5 41.9 30 -10.7 12.8
23:00 1014 29.94 843 24.89 5.3 41.5 29 -11.3 11.7
23:05 1014 29.94 843 24.89 5.4 41.7 30 -10.9 12.4
23:10 1014 29.94 843 24.89 5 41 31 -10.7 12.7
23:15 1014 29.94 843 24.89 4.5 40.1 32 -10.9 12.5
23:20 1014 29.94 843 24.89 4.6 40.3 31 -11.3 11.7
23:25 1014 29.94 843 24.89 4.7 40.4 33 -10.3 13.5
23:30 1014 29.94 843 24.89 4.1 39.4 33 -10.6 12.9
23:35 1014 29.94 843 24.89 4.3 39.8 31 -11.2 11.8
23:40 1014 29.94 843 24.89 4.1 39.4 35 -10.1 13.9
23:45 1014 29.94 843 24.89 3.7 38.6 35 -10.5 13.1
23:50 1014 29.94 843 24.89 4.1 39.4 32 -11.1 12
23:55 1014 29.94 843 24.89 4.5 40 32 -10.9 12.4
24:00 1014 29.94 843 24.89 4 39.2 34 -10.5 13.1